Time;durP1;ratioP1;P1;durP2;ratioP2;P2;SDS_P1;SDS_P2;PMS_P1;PMS_P2;Temp;Humidity;BMP_temperature;BMP_pressure;BME280_temperature;BME280_humidity;BME280_pressure;Samples;Min_cycle;Max_cycle;Signal;HPM_P1;HPM_P2
2021/08/04 00:00:04;;;;;;;;;;;17.80;91.30;;;;;;4315287;33;43649;-84
2021/08/04 00:02:38;;;;;;;;;;;17.80;91.30;;;;;;4314961;33;44303;-84
2021/08/04 00:05:14;;;;;;;;;;;17.80;91.30;;;;;;4315314;33;43571;-83
2021/08/04 00:07:52;;;;;;;;;;;17.80;91.40;;;;;;4316275;33;45170;-83
2021/08/04 00:10:34;;;;;;;;;;;17.70;91.40;;;;;;4315105;33;45766;-84
2021/08/04 00:13:12;;;;;;;;;;;17.70;91.40;;;;;;4316226;33;44331;-83
2021/08/04 00:15:56;;;;;;;;;;;17.70;91.40;;;;;;4315158;33;43302;-83
2021/08/04 00:18:37;;;;;;;;;;;17.70;91.30;;;;;;4316142;33;43473;-83
2021/08/04 00:21:21;;;;;;;;;;;17.70;91.30;;;;;;4315077;33;43878;-83
2021/08/04 00:23:49;;;;;;;;;;;17.70;91.30;;;;;;4315690;33;43847;-83
2021/08/04 00:26:27;;;;;;;;;;;17.70;91.70;;;;;;4314893;33;44623;-83
2021/08/04 00:29:00;;;;;;;;;;;17.70;91.40;;;;;;4314714;33;46274;-84
2021/08/04 00:31:42;;;;;;;;;;;17.70;91.40;;;;;;4315015;33;43337;-83
2021/08/04 00:34:10;;;;;;;;;;;17.70;91.40;;;;;;4314825;33;44167;-83
2021/08/04 00:36:46;;;;;;;;;;;17.60;91.40;;;;;;4314530;33;43269;-83
2021/08/04 00:39:19;;;;;;;;;;;17.60;91.40;;;;;;4316034;33;43537;-83
2021/08/04 00:42:03;;;;;;;;;;;17.60;91.50;;;;;;4314906;33;43094;-83
2021/08/04 00:44:41;;;;;;;;;;;17.60;91.50;;;;;;4314944;33;44581;-83
2021/08/04 00:47:25;;;;;;;;;;;17.60;91.50;;;;;;4316002;33;46193;-83
2021/08/04 00:49:57;;;;;;;;;;;17.60;91.50;;;;;;4314932;33;44880;-83
2021/08/04 00:52:38;;;;;;;;;;;17.60;91.50;;;;;;4315794;33;43901;-83
2021/08/04 00:55:18;;;;;;;;;;;17.60;91.50;;;;;;4315894;33;44199;-84
2021/08/04 00:57:56;;;;;;;;;;;17.60;91.50;;;;;;4314713;33;46068;-84
2021/08/04 01:00:24;;;;;;;;;;;17.50;91.50;;;;;;4314952;33;43076;-83
2021/08/04 01:03:03;;;;;;;;;;;17.50;91.50;;;;;;4315288;33;44771;-83
2021/08/04 01:05:45;;;;;;;;;;;17.60;91.50;;;;;;4314685;33;44092;-83
2021/08/04 01:08:47;;;;;;;;;;;17.60;91.50;;;;;;4314638;33;46213;-84
2021/08/04 01:11:26;;;;;;;;;;;17.60;91.60;;;;;;4291046;33;20006;-84
2021/08/04 01:14:08;;;;;;;;;;;17.50;91.50;;;;;;4315314;33;44140;-84
2021/08/04 01:16:50;;;;;;;;;;;17.50;91.50;;;;;;4314618;33;44543;-83
2021/08/04 01:19:33;;;;;;;;;;;17.50;91.60;;;;;;4315814;33;44737;-83
2021/08/04 01:22:31;;;;;;;;;;;17.50;91.60;;;;;;4315256;33;43207;-84
2021/08/04 01:25:24;;;;;;;;;;;17.50;92.00;;;;;;4314707;33;46329;-84
2021/08/04 01:28:16;;;;;;;;;;;17.40;91.60;;;;;;4314233;33;44781;-84
2021/08/04 01:30:54;;;;;;;;;;;17.40;91.60;;;;;;4314497;33;45610;-84
2021/08/04 01:33:22;;;;;;;;;;;17.50;91.60;;;;;;4314736;33;43354;-84
2021/08/04 01:35:57;;;;;;;;;;;17.40;91.60;;;;;;4314604;33;44781;-83
2021/08/04 01:38:31;;;;;;;;;;;17.40;91.60;;;;;;4314491;33;46190;-84
2021/08/04 01:41:12;;;;;;;;;;;17.40;91.70;;;;;;4317344;33;44815;-83
2021/08/04 01:43:47;;;;;;;;;;;17.40;91.60;;;;;;4317802;33;19994;-83
2021/08/04 01:46:29;;;;;;;;;;;17.40;91.60;;;;;;4317038;33;45350;-83
2021/08/04 01:49:03;;;;;;;;;;;17.40;91.70;;;;;;4318247;33;44873;-84
2021/08/04 01:51:44;;;;;;;;;;;17.40;91.70;;;;;;4316946;33;45280;-83
2021/08/04 01:54:20;;;;;;;;;;;17.40;91.70;;;;;;4317123;33;44491;-84
2021/08/04 01:57:05;;;;;;;;;;;17.40;91.70;;;;;;4316998;33;43792;-84
2021/08/04 01:59:32;;;;;;;;;;;17.40;91.70;;;;;;4318034;33;44634;-84
2021/08/04 02:02:20;;;;;;;;;;;17.40;91.70;;;;;;4317638;33;46150;-84
2021/08/04 02:04:58;;;;;;;;;;;17.30;91.70;;;;;;4317470;33;43493;-84
2021/08/04 02:07:47;;;;;;;;;;;17.30;91.70;;;;;;4316983;33;43972;-84
2021/08/04 02:10:19;;;;;;;;;;;17.30;91.70;;;;;;4316947;33;43702;-84
2021/08/04 02:12:59;;;;;;;;;;;17.30;91.80;;;;;;4316805;33;44197;-84
2021/08/04 02:15:46;;;;;;;;;;;17.30;91.80;;;;;;4316752;33;45482;-84
2021/08/04 02:18:22;;;;;;;;;;;17.30;91.90;;;;;;4317344;33;42856;-84
2021/08/04 02:20:51;;;;;;;;;;;17.30;91.80;;;;;;4317681;33;43997;-84
2021/08/04 02:23:28;;;;;;;;;;;17.30;91.90;;;;;;4316537;33;45071;-84
2021/08/04 02:26:11;;;;;;;;;;;17.30;91.90;;;;;;4316583;33;42713;-84
2021/08/04 02:28:56;;;;;;;;;;;17.30;91.90;;;;;;4316073;33;43869;-84
2021/08/04 02:31:35;;;;;;;;;;;17.30;91.90;;;;;;4316444;33;44734;-84
2021/08/04 02:34:17;;;;;;;;;;;17.20;91.90;;;;;;4317586;33;44978;-84
2021/08/04 02:36:55;;;;;;;;;;;17.30;91.90;;;;;;4316095;33;45817;-84
2021/08/04 02:39:39;;;;;;;;;;;17.20;91.90;;;;;;4316287;33;45791;-84
2021/08/04 02:42:17;;;;;;;;;;;17.30;91.90;;;;;;4317395;33;45815;-84
2021/08/04 02:45:01;;;;;;;;;;;17.20;91.90;;;;;;4318346;33;20037;-84
2021/08/04 02:47:39;;;;;;;;;;;17.20;91.90;;;;;;4317363;33;45721;-84
2021/08/04 02:50:20;;;;;;;;;;;17.20;92.00;;;;;;4316159;33;45782;-84
2021/08/04 02:52:50;;;;;;;;;;;17.20;92.00;;;;;;4316479;33;44991;-84
2021/08/04 02:55:31;;;;;;;;;;;17.20;92.00;;;;;;4316030;33;43953;-84
2021/08/04 02:58:07;;;;;;;;;;;17.20;92.00;;;;;;4316091;33;44470;-83
2021/08/04 03:00:44;;;;;;;;;;;17.20;92.00;;;;;;4317148;33;44169;-84
2021/08/04 03:03:25;;;;;;;;;;;17.20;91.90;;;;;;4316700;33;44061;-84
2021/08/04 03:06:07;;;;;;;;;;;17.20;92.00;;;;;;4317155;33;43294;-84
2021/08/04 03:08:45;;;;;;;;;;;17.20;92.00;;;;;;4317058;33;44309;-85
2021/08/04 03:11:23;;;;;;;;;;;17.20;92.00;;;;;;4315969;33;43358;-83
2021/08/04 03:13:58;;;;;;;;;;;17.10;92.00;;;;;;4315904;33;45211;-84
2021/08/04 03:16:40;;;;;;;;;;;17.10;91.90;;;;;;4315924;33;45358;-84
2021/08/04 03:19:07;;;;;;;;;;;17.10;91.90;;;;;;4316951;33;45965;-84
2021/08/04 03:21:45;;;;;;;;;;;17.10;91.90;;;;;;4316448;33;44968;-84
2021/08/04 03:24:26;;;;;;;;;;;17.10;91.90;;;;;;4316779;33;43215;-84
2021/08/04 03:27:07;;;;;;;;;;;17.10;91.80;;;;;;4315739;33;45812;-85
2021/08/04 03:29:42;;;;;;;;;;;17.10;91.90;;;;;;4315683;33;45731;-84
2021/08/04 03:32:23;;;;;;;;;;;17.00;91.90;;;;;;4315659;33;42208;-85
2021/08/04 03:35:02;;;;;;;;;;;17.00;91.90;;;;;;4315733;33;42787;-84
2021/08/04 03:37:35;;;;;;;;;;;17.00;91.90;;;;;;4316759;33;45807;-84
2021/08/04 03:40:11;;;;;;;;;;;17.00;92.00;;;;;;4316514;33;45702;-84
2021/08/04 03:42:47;;;;;;;;;;;17.00;92.00;;;;;;4316788;33;45841;-84
2021/08/04 03:45:14;;;;;;;;;;;17.00;92.00;;;;;;4315532;33;45278;-84
2021/08/04 03:47:52;;;;;;;;;;;17.00;92.00;;;;;;4316259;33;45819;-84
2021/08/04 03:50:25;;;;;;;;;;;17.00;92.10;;;;;;4315483;33;44094;-84
2021/08/04 03:53:03;;;;;;;;;;;17.00;92.10;;;;;;4315363;33;44784;-84
2021/08/04 03:55:35;;;;;;;;;;;16.90;92.10;;;;;;4316361;33;45317;-84
2021/08/04 03:58:16;;;;;;;;;;;16.90;92.10;;;;;;4315334;33;45842;-84
2021/08/04 04:00:54;;;;;;;;;;;16.90;92.10;;;;;;4315988;33;43312;-84
2021/08/04 04:03:30;;;;;;;;;;;16.90;92.10;;;;;;4314305;33;45770;-84
2021/08/04 04:05:58;;;;;;;;;;;16.90;92.20;;;;;;4315086;33;45679;-84
2021/08/04 04:08:28;;;;;;;;;;;16.90;92.20;;;;;;4314985;33;44579;-85
2021/08/04 04:11:09;;;;;;;;;;;16.90;92.20;;;;;;4314649;33;45325;-84
2021/08/04 04:13:45;;;;;;;;;;;16.90;92.20;;;;;;4316195;33;45787;-84
2021/08/04 04:16:29;;;;;;;;;;;16.90;92.20;;;;;;4314730;33;43835;-84
2021/08/04 04:19:07;;;;;;;;;;;16.90;92.30;;;;;;4316101;33;20033;-84
2021/08/04 04:21:52;;;;;;;;;;;16.90;92.30;;;;;;4315377;33;43840;-84
2021/08/04 04:24:36;;;;;;;;;;;16.90;92.30;;;;;;4315029;33;44726;-84
2021/08/04 04:27:17;;;;;;;;;;;16.90;92.40;;;;;;4314883;33;43944;-84
2021/08/04 04:29:56;;;;;;;;;;;16.90;92.40;;;;;;4315018;33;42762;-84
2021/08/04 04:32:37;;;;;;;;;;;16.90;92.40;;;;;;4316100;33;46126;-84
2021/08/04 04:35:19;;;;;;;;;;;16.90;92.40;;;;;;4315041;33;43189;-84
2021/08/04 04:37:57;;;;;;;;;;;16.90;92.50;;;;;;4314992;33;45426;-84
2021/08/04 04:40:35;;;;;;;;;;;16.90;92.50;;;;;;4315024;33;43283;-84
2021/08/04 04:43:05;;;;;;;;;;;16.90;92.50;;;;;;4314961;33;45388;-84
2021/08/04 04:45:43;;;;;;;;;;;16.90;92.60;;;;;;4315551;33;45573;-84
2021/08/04 04:48:25;;;;;;;;;;;16.90;92.60;;;;;;4314653;33;44775;-84
2021/08/04 04:51:06;;;;;;;;;;;16.90;92.60;;;;;;4316477;33;19995;-84
2021/08/04 04:53:44;;;;;;;;;;;16.90;92.60;;;;;;4314885;33;44132;-85
2021/08/04 04:56:25;;;;;;;;;;;16.90;92.70;;;;;;4314768;33;44788;-85
2021/08/04 04:59:06;;;;;;;;;;;16.90;92.70;;;;;;4314741;33;44844;-85
2021/08/04 05:01:43;;;;;;;;;;;16.90;92.70;;;;;;4314476;33;44105;-84
2021/08/04 05:04:18;;;;;;;;;;;16.90;92.80;;;;;;4314257;33;45176;-84
2021/08/04 05:06:56;;;;;;;;;;;16.90;92.80;;;;;;4314597;33;44187;-84
2021/08/04 05:09:35;;;;;;;;;;;16.90;92.90;;;;;;4314763;33;45380;-84
2021/08/04 05:12:16;;;;;;;;;;;16.90;92.90;;;;;;4314764;33;43160;-84
2021/08/04 05:14:43;;;;;;;;;;;16.90;92.90;;;;;;4316625;33;42874;-84
2021/08/04 05:17:16;;;;;;;;;;;16.90;93.00;;;;;;4317526;33;46026;-84
2021/08/04 05:19:57;;;;;;;;;;;16.90;93.00;;;;;;4318759;33;44325;-84
2021/08/04 05:22:33;;;;;;;;;;;16.90;93.00;;;;;;4317774;33;20100;-84
2021/08/04 05:25:11;;;;;;;;;;;16.90;93.10;;;;;;4317523;33;45446;-84
2021/08/04 05:27:39;;;;;;;;;;;16.90;93.10;;;;;;4317561;33;43351;-84
2021/08/04 05:30:14;;;;;;;;;;;16.90;93.10;;;;;;4318164;33;44722;-84
2021/08/04 05:32:42;;;;;;;;;;;16.90;93.20;;;;;;4317253;33;45584;-84
2021/08/04 05:35:10;;;;;;;;;;;16.90;93.20;;;;;;4317239;33;46268;-85
2021/08/04 05:37:40;;;;;;;;;;;16.90;93.20;;;;;;4318313;33;44434;-84
2021/08/04 05:40:10;;;;;;;;;;;16.90;93.30;;;;;;4317815;33;44373;-84
2021/08/04 05:42:40;;;;;;;;;;;16.90;93.30;;;;;;4318243;33;45780;-84
2021/08/04 05:45:09;;;;;;;;;;;16.90;93.30;;;;;;4317257;33;45774;-84
2021/08/04 05:47:52;;;;;;;;;;;16.90;93.40;;;;;;4316998;33;44763;-84
2021/08/04 05:50:21;;;;;;;;;;;16.90;93.40;;;;;;4316879;33;44131;-84
2021/08/04 05:52:57;;;;;;;;;;;16.90;93.50;;;;;;4319015;33;20045;-84
2021/08/04 05:55:34;;;;;;;;;;;16.90;93.50;;;;;;4317836;33;45142;-84
2021/08/04 05:58:07;;;;;;;;;;;16.90;93.50;;;;;;4316891;33;45817;-84
2021/08/04 06:00:39;;;;;;;;;;;16.90;93.50;;;;;;4316673;33;43474;-84
2021/08/04 06:03:09;;;;;;;;;;;16.90;93.50;;;;;;4317675;33;45056;-84
2021/08/04 06:05:45;;;;;;;;;;;16.90;93.50;;;;;;4317454;33;44272;-84
2021/08/04 06:08:26;;;;;;;;;;;16.90;93.60;;;;;;4317915;33;45064;-84
2021/08/04 06:10:59;;;;;;;;;;;16.90;93.70;;;;;;4316866;33;44601;-84
2021/08/04 06:13:31;;;;;;;;;;;16.90;93.70;;;;;;4316459;33;44198;-84
2021/08/04 06:15:59;;;;;;;;;;;16.90;93.70;;;;;;4316973;33;44222;-84
2021/08/04 06:18:36;;;;;;;;;;;16.90;93.70;;;;;;4317662;33;42570;-84
2021/08/04 06:21:09;;;;;;;;;;;16.90;93.80;;;;;;4316235;33;44748;-84
2021/08/04 06:23:39;;;;;;;;;;;16.90;93.80;;;;;;4317008;33;43888;-84
2021/08/04 06:26:11;;;;;;;;;;;16.90;93.80;;;;;;4316657;33;42880;-84
2021/08/04 06:28:56;;;;;;;;;;;16.90;93.80;;;;;;4316439;33;43656;-84
2021/08/04 06:31:26;;;;;;;;;;;16.90;93.80;;;;;;4316077;33;44051;-84
2021/08/04 06:34:01;;;;;;;;;;;17.00;93.90;;;;;;4316480;33;43433;-84
2021/08/04 06:36:34;;;;;;;;;;;17.00;93.90;;;;;;4316622;33;43471;-83
2021/08/04 06:39:06;;;;;;;;;;;17.00;93.90;;;;;;4316251;33;43841;-84
2021/08/04 06:41:43;;;;;;;;;;;16.90;93.90;;;;;;4316610;33;44284;-83
2021/08/04 06:44:15;;;;;;;;;;;17.00;94.00;;;;;;4317402;33;44969;-84
2021/08/04 06:46:50;;;;;;;;;;;17.00;94.00;;;;;;4317463;33;46201;-84
2021/08/04 06:49:17;;;;;;;;;;;17.00;94.00;;;;;;4317225;33;43704;-84
2021/08/04 06:51:51;;;;;;;;;;;17.00;94.00;;;;;;4316198;33;42482;-83
2021/08/04 06:54:24;;;;;;;;;;;17.00;94.00;;;;;;4317277;33;43140;-84
2021/08/04 06:56:57;;;;;;;;;;;17.00;94.40;;;;;;4315759;33;43679;-83
2021/08/04 06:59:27;;;;;;;;;;;17.00;94.00;;;;;;4315753;33;44067;-83
2021/08/04 07:01:54;;;;;;;;;;;17.00;94.00;;;;;;4315450;33;43086;-84
2021/08/04 07:04:30;;;;;;;;;;;17.00;94.10;;;;;;4316204;33;43776;-84
2021/08/04 07:07:03;;;;;;;;;;;17.00;94.10;;;;;;4317045;33;43877;-83
2021/08/04 07:09:36;;;;;;;;;;;17.00;94.10;;;;;;4315936;33;43793;-84
2021/08/04 07:12:05;;;;;;;;;;;17.00;94.10;;;;;;4316534;33;44265;-84
2021/08/04 07:14:32;;;;;;;;;;;17.00;94.10;;;;;;4315543;33;42222;-84
2021/08/04 07:17:00;;;;;;;;;;;17.00;94.20;;;;;;4316648;33;43511;-84
2021/08/04 07:19:31;;;;;;;;;;;17.00;94.10;;;;;;4316522;33;44267;-83
2021/08/04 07:22:03;;;;;;;;;;;17.00;94.10;;;;;;4315789;33;43542;-84
2021/08/04 07:24:45;;;;;;;;;;;17.10;94.20;;;;;;4316581;33;20037;-84
2021/08/04 07:27:25;;;;;;;;;;;17.00;94.10;;;;;;4315559;33;43874;-83
2021/08/04 07:30:02;;;;;;;;;;;17.00;94.10;;;;;;4316721;33;44729;-83
2021/08/04 07:32:40;;;;;;;;;;;17.10;94.50;;;;;;4315433;33;42315;-84
2021/08/04 07:35:16;;;;;;;;;;;17.10;94.10;;;;;;4316502;33;43136;-84
2021/08/04 07:37:45;;;;;;;;;;;17.10;94.10;;;;;;4316343;33;42435;-83
2021/08/04 07:40:16;;;;;;;;;;;17.10;94.10;;;;;;4316963;33;44096;-84
2021/08/04 07:42:43;;;;;;;;;;;17.10;94.10;;;;;;4316208;33;43204;-84
2021/08/04 07:45:20;;;;;;;;;;;17.10;94.10;;;;;;4316135;33;44290;-84
2021/08/04 07:51:09;;;;;;;;;;;17.10;94.10;;;;;;4317770;33;19994;-83
2021/08/04 07:54:01;;;;;;;;;;;17.10;94.10;;;;;;4315506;33;44171;-83
2021/08/04 07:56:33;;;;;;;;;;;17.20;94.10;;;;;;4316241;33;44065;-83
2021/08/04 07:59:04;;;;;;;;;;;17.20;94.00;;;;;;4316243;33;42589;-82
2021/08/04 08:01:34;;;;;;;;;;;17.10;94.00;;;;;;4316218;33;43955;-83
2021/08/04 08:04:13;;;;;;;;;;;17.20;94.10;;;;;;4316392;33;43194;-82
2021/08/04 08:06:45;;;;;;;;;;;17.20;94.10;;;;;;4315340;33;43276;-82
2021/08/04 08:09:24;;;;;;;;;;;17.20;94.10;;;;;;4316212;33;42666;-82
2021/08/04 08:11:52;;;;;;;;;;;17.20;94.10;;;;;;4316315;33;42620;-82
2021/08/04 08:14:26;;;;;;;;;;;17.20;94.10;;;;;;4315990;33;43328;-82
2021/08/04 08:16:54;;;;;;;;;;;17.20;94.00;;;;;;4316384;33;42821;-83
2021/08/04 08:19:27;;;;;;;;;;;17.20;94.00;;;;;;4314953;33;42650;-82
2021/08/04 08:21:59;;;;;;;;;;;17.20;94.00;;;;;;4316170;33;42842;-80
2021/08/04 08:24:35;;;;;;;;;;;17.20;94.00;;;;;;4316188;33;43515;-80
2021/08/04 08:27:07;;;;;;;;;;;17.20;94.00;;;;;;4316670;33;19990;-80
2021/08/04 08:29:43;;;;;;;;;;;17.30;94.10;;;;;;4316222;33;42263;-80
2021/08/04 08:32:15;;;;;;;;;;;17.30;94.00;;;;;;4315208;33;43588;-79
2021/08/04 08:34:48;;;;;;;;;;;17.30;94.00;;;;;;4316126;33;44216;-80
2021/08/04 08:37:15;;;;;;;;;;;17.30;94.00;;;;;;4315651;33;42734;-80
2021/08/04 08:39:47;;;;;;;;;;;17.30;94.00;;;;;;4314614;33;42329;-80
2021/08/04 08:42:17;;;;;;;;;;;17.30;94.00;;;;;;4314500;33;44245;-80
2021/08/04 08:44:44;;;;;;;;;;;17.30;94.00;;;;;;4315610;33;42726;-80
2021/08/04 08:47:17;;;;;;;;;;;17.30;94.00;;;;;;4315934;33;43474;-80
2021/08/04 08:49:50;;;;;;;;;;;17.30;94.00;;;;;;4319397;33;44116;-80
2021/08/04 08:52:22;;;;;;;;;;;17.30;93.90;;;;;;4319335;33;42757;-80
2021/08/04 08:54:55;;;;;;;;;;;17.30;93.90;;;;;;4320559;33;43473;-80
2021/08/04 08:57:28;;;;;;;;;;;17.30;93.90;;;;;;4320350;33;19994;-80
2021/08/04 09:00:00;;;;;;;;;;;17.30;93.90;;;;;;4319719;33;44060;-81
2021/08/04 09:02:28;;;;;;;;;;;17.30;93.80;;;;;;4320621;33;43588;-80
2021/08/04 09:05:09;;;;;;;;;;;17.30;93.80;;;;;;4319107;33;43441;-80
2021/08/04 09:07:37;;;;;;;;;;;17.40;93.90;;;;;;4320564;33;44233;-80
2021/08/04 09:10:19;;;;;;;;;;;17.30;93.80;;;;;;4320578;33;43147;-80
2021/08/04 09:12:52;;;;;;;;;;;17.40;93.90;;;;;;4320627;33;44156;-80
2021/08/04 09:15:28;;;;;;;;;;;17.40;93.80;;;;;;4319564;33;43844;-80
2021/08/04 09:18:04;;;;;;;;;;;17.40;93.90;;;;;;4320677;33;44629;-80
2021/08/04 09:20:53;;;;;;;;;;;17.40;93.80;;;;;;4320560;33;43100;-80
2021/08/04 09:23:22;;;;;;;;;;;17.40;93.80;;;;;;4320126;33;44278;-80
2021/08/04 09:26:01;;;;;;;;;;;17.40;93.80;;;;;;4320451;33;43405;-80
2021/08/04 09:28:53;;;;;;;;;;;17.40;93.80;;;;;;4320433;33;42877;-80
2021/08/04 09:31:21;;;;;;;;;;;17.40;93.80;;;;;;4320485;33;42818;-80
2021/08/04 09:33:51;;;;;;;;;;;17.50;93.80;;;;;;4319211;33;42503;-80
2021/08/04 09:36:28;;;;;;;;;;;17.50;93.80;;;;;;4319038;33;44220;-80
2021/08/04 09:39:05;;;;;;;;;;;17.40;93.70;;;;;;4318954;33;43494;-80
2021/08/04 09:41:32;;;;;;;;;;;17.50;93.80;;;;;;4320377;33;44115;-80
2021/08/04 09:44:03;;;;;;;;;;;17.50;93.70;;;;;;4320290;33;44042;-80
2021/08/04 09:46:33;;;;;;;;;;;17.50;93.70;;;;;;4318949;33;43477;-80
2021/08/04 09:49:10;;;;;;;;;;;17.50;93.70;;;;;;4320318;33;44738;-80
2021/08/04 09:51:43;;;;;;;;;;;17.50;93.70;;;;;;4320277;33;44140;-80
2021/08/04 09:54:13;;;;;;;;;;;17.50;93.70;;;;;;4319453;33;43459;-80
2021/08/04 09:56:48;;;;;;;;;;;17.50;93.70;;;;;;4319635;33;43743;-81
2021/08/04 09:59:15;;;;;;;;;;;17.50;93.60;;;;;;4320704;33;43790;-80
2021/08/04 10:01:45;;;;;;;;;;;17.50;93.60;;;;;;4315599;33;44595;-81
2021/08/04 10:04:18;;;;;;;;;;;17.50;93.60;;;;;;4316493;33;42857;-80
2021/08/04 10:06:48;;;;;;;;;;;17.50;93.60;;;;;;4316924;33;43004;-80
2021/08/04 10:09:18;;;;;;;;;;;17.50;93.60;;;;;;4317771;33;46095;-80
2021/08/04 10:11:57;;;;;;;;;;;17.60;93.60;;;;;;4316830;33;44291;-80
2021/08/04 10:14:25;;;;;;;;;;;17.60;93.60;;;;;;4317090;33;44173;-80
2021/08/04 10:16:52;;;;;;;;;;;17.60;93.60;;;;;;4317405;33;44063;-80
2021/08/04 10:19:25;;;;;;;;;;;17.60;93.50;;;;;;4317897;33;43311;-80
2021/08/04 10:22:01;;;;;;;;;;;17.60;93.50;;;;;;4317689;33;44984;-80
2021/08/04 10:24:32;;;;;;;;;;;17.60;93.50;;;;;;4316771;33;44276;-80
2021/08/04 10:27:02;;;;;;;;;;;17.60;93.50;;;;;;4317871;33;44036;-80
2021/08/04 10:29:30;;;;;;;;;;;17.60;93.50;;;;;;4317084;33;19998;-80
2021/08/04 10:32:04;;;;;;;;;;;17.60;93.40;;;;;;4316122;33;42732;-80
2021/08/04 10:34:34;;;;;;;;;;;17.60;93.40;;;;;;4317834;33;43350;-80
2021/08/04 10:37:06;;;;;;;;;;;17.70;93.40;;;;;;4316664;33;45035;-80
2021/08/04 10:39:33;;;;;;;;;;;17.70;93.40;;;;;;4317084;33;43884;-80
2021/08/04 10:42:09;;;;;;;;;;;17.70;93.40;;;;;;4316289;33;44626;-80
2021/08/04 10:44:38;;;;;;;;;;;17.70;93.40;;;;;;4315880;33;44946;-80
2021/08/04 10:47:23;;;;;;;;;;;17.70;93.40;;;;;;4317082;33;43343;-80
2021/08/04 10:50:21;;;;;;;;;;;17.70;93.40;;;;;;4316443;33;44018;-80
2021/08/04 10:52:57;;;;;;;;;;;17.80;93.40;;;;;;4300648;33;42832;-80
2021/08/04 10:55:28;;;;;;;;;;;17.80;93.30;;;;;;4316727;33;43454;-80
2021/08/04 10:58:10;;;;;;;;;;;17.70;93.30;;;;;;4316185;33;43301;-80
2021/08/04 11:00:38;;;;;;;;;;;17.80;93.30;;;;;;4317178;33;43204;-81
2021/08/04 11:03:24;;;;;;;;;;;17.80;93.30;;;;;;4315839;33;44196;-80
2021/08/04 11:06:04;;;;;;;;;;;17.80;93.30;;;;;;4316017;33;45137;-80
2021/08/04 11:08:40;;;;;;;;;;;17.80;93.20;;;;;;4317148;33;43224;-80
2021/08/04 11:11:31;;;;;;;;;;;17.80;93.20;;;;;;4316942;33;43470;-80
2021/08/04 11:14:03;;;;;;;;;;;17.80;93.20;;;;;;4316843;33;43939;-80
2021/08/04 11:16:36;;;;;;;;;;;17.90;93.20;;;;;;4317270;33;43215;-80
2021/08/04 11:19:09;;;;;;;;;;;17.80;93.10;;;;;;4316879;33;44321;-80
2021/08/04 11:21:39;;;;;;;;;;;17.90;93.20;;;;;;4316458;33;43545;-80
2021/08/04 11:24:06;;;;;;;;;;;17.90;93.10;;;;;;4316458;33;44589;-80
2021/08/04 11:26:36;;;;;;;;;;;17.90;93.10;;;;;;4316848;33;43961;-80
2021/08/04 11:29:06;;;;;;;;;;;17.90;93.10;;;;;;4315216;33;43115;-80
2021/08/04 11:31:42;;;;;;;;;;;17.90;93.10;;;;;;4316773;33;20064;-80
2021/08/04 11:34:25;;;;;;;;;;;17.90;93.10;;;;;;4316847;33;43004;-80
2021/08/04 11:36:57;;;;;;;;;;;17.90;93.10;;;;;;4315744;33;43945;-80
2021/08/04 11:39:30;;;;;;;;;;;18.00;93.10;;;;;;4315558;33;43997;-80
2021/08/04 11:42:05;;;;;;;;;;;18.00;93.10;;;;;;4315593;33;44162;-80
2021/08/04 11:44:34;;;;;;;;;;;18.00;93.00;;;;;;4315539;33;44185;-80
2021/08/04 11:47:10;;;;;;;;;;;18.00;93.00;;;;;;4315383;33;44921;-80
2021/08/04 11:49:39;;;;;;;;;;;18.00;93.00;;;;;;4315043;33;43450;-80
2021/08/04 11:52:12;;;;;;;;;;;18.10;93.10;;;;;;4316669;33;43169;-80
2021/08/04 11:54:42;;;;;;;;;;;18.00;93.00;;;;;;4316557;33;43493;-80
2021/08/04 11:57:13;;;;;;;;;;;18.10;93.00;;;;;;4316520;33;43961;-80
2021/08/04 11:59:45;;;;;;;;;;;18.10;93.00;;;;;;4315495;33;43569;-81
2021/08/04 12:02:15;;;;;;;;;;;18.10;93.00;;;;;;4317046;33;20016;-80
2021/08/04 12:04:49;;;;;;;;;;;18.10;93.00;;;;;;4315408;33;42627;-80
2021/08/04 12:07:26;;;;;;;;;;;18.10;93.00;;;;;;4315537;33;43195;-81
2021/08/04 12:09:54;;;;;;;;;;;18.10;92.90;;;;;;4314902;33;43105;-81
2021/08/04 12:12:27;;;;;;;;;;;18.10;92.90;;;;;;4314786;33;42260;-80
2021/08/04 12:14:59;;;;;;;;;;;18.20;92.90;;;;;;4315049;33;44187;-80
2021/08/04 12:17:31;;;;;;;;;;;18.20;92.90;;;;;;4315825;33;45190;-80
2021/08/04 12:20:12;;;;;;;;;;;18.20;92.90;;;;;;4316128;33;43944;-80
2021/08/04 12:22:39;;;;;;;;;;;18.20;92.90;;;;;;4315183;33;43474;-80
2021/08/04 12:25:15;;;;;;;;;;;18.20;92.90;;;;;;4315272;33;43680;-80
2021/08/04 12:27:44;;;;;;;;;;;18.20;92.90;;;;;;4316001;33;43527;-80
2021/08/04 12:30:18;;;;;;;;;;;18.30;92.90;;;;;;4316300;33;43212;-80
2021/08/04 12:33:04;;;;;;;;;;;18.30;92.90;;;;;;4315714;33;19998;-80
2021/08/04 12:35:38;;;;;;;;;;;18.30;92.90;;;;;;4315127;33;43212;-81
2021/08/04 12:38:10;;;;;;;;;;;18.30;92.80;;;;;;4315007;33;43174;-80
2021/08/04 12:40:38;;;;;;;;;;;18.30;92.80;;;;;;4315963;33;43196;-80
2021/08/04 12:43:10;;;;;;;;;;;18.30;92.70;;;;;;4314942;33;43067;-80
2021/08/04 12:45:50;;;;;;;;;;;18.30;92.80;;;;;;4314882;33;44721;-79
2021/08/04 12:48:22;;;;;;;;;;;18.40;92.80;;;;;;4314558;33;43721;-79
2021/08/04 12:51:02;;;;;;;;;;;18.40;92.80;;;;;;4314899;33;43934;-79
2021/08/04 12:53:34;;;;;;;;;;;18.40;92.80;;;;;;4315485;33;43244;-79
2021/08/04 12:56:08;;;;;;;;;;;18.40;92.80;;;;;;4316047;33;44000;-80
2021/08/04 12:58:54;;;;;;;;;;;18.40;92.80;;;;;;4315764;33;44549;-80
2021/08/04 13:01:26;;;;;;;;;;;18.40;92.70;;;;;;4315275;33;44653;-80
2021/08/04 13:03:53;;;;;;;;;;;18.40;92.60;;;;;;4315592;33;43513;-80
2021/08/04 13:06:39;;;;;;;;;;;18.40;92.70;;;;;;4314764;33;43879;-80
2021/08/04 13:09:11;;;;;;;;;;;18.50;92.70;;;;;;4314732;33;43960;-80
2021/08/04 13:11:47;;;;;;;;;;;18.50;92.70;;;;;;4315911;33;44207;-80
2021/08/04 13:14:17;;;;;;;;;;;18.50;92.60;;;;;;4314519;33;43133;-80
2021/08/04 13:16:50;;;;;;;;;;;18.50;92.70;;;;;;4315363;33;43316;-80
2021/08/04 13:19:24;;;;;;;;;;;18.50;92.60;;;;;;4315653;33;45336;-80
2021/08/04 13:22:02;;;;;;;;;;;18.50;92.60;;;;;;4314388;33;44088;-80
2021/08/04 13:24:37;;;;;;;;;;;18.50;92.60;;;;;;4315735;33;43478;-80
2021/08/04 13:27:26;;;;;;;;;;;18.50;92.50;;;;;;4315539;33;43331;-80
2021/08/04 13:30:18;;;;;;;;;;;18.50;92.50;;;;;;4315567;33;42226;-80
2021/08/04 13:32:45;;;;;;;;;;;18.60;92.50;;;;;;4315497;33;43478;-80
2021/08/04 13:35:17;;;;;;;;;;;18.60;92.50;;;;;;4316406;33;19998;-80
2021/08/04 13:37:48;;;;;;;;;;;18.60;92.50;;;;;;4318029;33;43572;-79
2021/08/04 13:40:17;;;;;;;;;;;18.60;92.50;;;;;;4318423;33;43862;-80
2021/08/04 13:42:53;;;;;;;;;;;18.60;92.40;;;;;;4316650;33;45486;-80
2021/08/04 13:45:26;;;;;;;;;;;18.60;92.40;;;;;;4317075;33;42950;-80
2021/08/04 13:47:59;;;;;;;;;;;18.60;92.30;;;;;;4317389;33;43549;-80
2021/08/04 13:50:30;;;;;;;;;;;18.60;92.30;;;;;;4317201;33;43498;-80
2021/08/04 13:52:57;;;;;;;;;;;18.60;92.20;;;;;;4318283;33;43465;-80
2021/08/04 13:55:32;;;;;;;;;;;18.60;92.30;;;;;;4316649;33;44204;-80
2021/08/04 13:58:05;;;;;;;;;;;18.60;92.30;;;;;;4318237;33;43268;-80
2021/08/04 14:00:33;;;;;;;;;;;18.60;92.30;;;;;;4316940;33;43441;-80
2021/08/04 14:03:04;;;;;;;;;;;18.70;92.30;;;;;;4317522;33;42785;-80
2021/08/04 14:05:43;;;;;;;;;;;18.60;92.30;;;;;;4317363;33;20006;-80
2021/08/04 14:08:17;;;;;;;;;;;18.70;92.30;;;;;;4317000;33;45999;-80
2021/08/04 14:10:44;;;;;;;;;;;18.70;92.20;;;;;;4316750;33;44057;-80
2021/08/04 14:13:14;;;;;;;;;;;18.70;92.20;;;;;;4316376;33;43561;-81
2021/08/04 14:15:41;;;;;;;;;;;18.70;92.20;;;;;;4316805;33;43951;-81
2021/08/04 14:18:08;;;;;;;;;;;18.70;92.30;;;;;;4317475;33;42628;-80
2021/08/04 14:20:39;;;;;;;;;;;18.70;92.30;;;;;;4317310;33;42983;-80
2021/08/04 14:23:12;;;;;;;;;;;18.70;92.30;;;;;;4317879;33;43469;-80
2021/08/04 14:25:41;;;;;;;;;;;18.70;92.20;;;;;;4317823;33;43290;-81
2021/08/04 14:28:15;;;;;;;;;;;18.80;92.30;;;;;;4317527;33;42669;-80
2021/08/04 14:30:44;;;;;;;;;;;18.70;92.30;;;;;;4317815;33;44132;-80
2021/08/04 14:33:17;;;;;;;;;;;18.80;92.30;;;;;;4317378;33;42789;-80
2021/08/04 14:35:50;;;;;;;;;;;18.80;92.20;;;;;;4316855;33;20470;-80
2021/08/04 14:38:17;;;;;;;;;;;18.80;92.20;;;;;;4317330;33;42746;-80
2021/08/04 14:40:52;;;;;;;;;;;18.80;92.20;;;;;;4316373;33;44260;-80
2021/08/04 14:43:24;;;;;;;;;;;18.80;92.10;;;;;;4317256;33;43077;-80
2021/08/04 14:45:51;;;;;;;;;;;18.80;92.10;;;;;;4316246;33;43881;-80
2021/08/04 14:48:19;;;;;;;;;;;18.80;92.00;;;;;;4315595;33;43815;-80
2021/08/04 14:50:54;;;;;;;;;;;18.80;92.00;;;;;;4317257;33;42968;-80
2021/08/04 14:53:26;;;;;;;;;;;18.80;92.00;;;;;;4317422;33;43946;-80
2021/08/04 14:55:58;;;;;;;;;;;18.80;92.00;;;;;;4316262;33;43255;-80
2021/08/04 14:58:31;;;;;;;;;;;18.80;91.90;;;;;;4317605;33;43585;-80
2021/08/04 15:00:59;;;;;;;;;;;18.90;91.90;;;;;;4317495;33;44239;-80
2021/08/04 15:03:33;;;;;;;;;;;18.90;91.90;;;;;;4317218;33;43183;-80